Time;durP1;ratioP1;P1;durP2;ratioP2;P2;SDS_P1;SDS_P2;PMS_P1;PMS_P2;Temp;Humidity;BMP_temperature;BMP_pressure;BME280_temperature;BME280_humidity;BME280_pressure;Samples;Min_cycle;Max_cycle;Signal;HPM_P1;HPM_P2
2023/02/26 00:00:58;;;;;;;18.20;8.40;;;;;;;12.52;57.51;99268.56;107823;1289;22008;-65
2023/02/26 00:03:23;;;;;;;16.60;7.90;;;;;;;12.53;57.49;99256.89;107903;1289;21977;-64
2023/02/26 00:05:50;;;;;;;14.80;7.60;;;;;;;12.55;57.79;99250.67;107794;1289;21990;-64
2023/02/26 00:08:16;;;;;;;14.80;6.80;;;;;;;12.60;57.96;99244.29;107828;1289;21988;-65
2023/02/26 00:10:42;;;;;;;12.20;6.80;;;;;;;12.67;58.09;99244.95;107980;1289;21989;-65
2023/02/26 00:13:09;;;;;;;13.40;6.50;;;;;;;12.74;58.57;99246.41;107977;1289;22450;-62
2023/02/26 00:15:36;;;;;;;10.00;5.80;;;;;;;12.82;58.71;99248.41;107952;1289;23650;-65
2023/02/26 00:18:09;;;;;;;9.50;6.00;;;;;;;12.89;58.84;99256.91;107971;1288;22063;-62
2023/02/26 00:20:38;;;;;;;11.50;5.60;;;;;;;12.95;58.82;99256.84;107818;1289;22016;-65
2023/02/26 00:23:05;;;;;;;9.00;4.80;;;;;;;13.02;58.67;99251.48;107997;1289;21996;-66
2023/02/26 00:25:31;;;;;;;9.20;5.40;;;;;;;13.09;58.63;99249.26;107961;1289;22086;-65
2023/02/26 00:27:58;;;;;;;11.30;5.70;;;;;;;13.15;58.76;99240.72;107965;1289;22027;-63
2023/02/26 00:30:24;;;;;;;11.00;6.50;;;;;;;13.22;58.81;99243.63;107993;1289;22004;-64
2023/02/26 00:32:51;;;;;;;10.60;5.60;;;;;;;13.27;58.79;99253.96;107992;1289;21998;-62
2023/02/26 00:35:17;;;;;;;12.00;6.20;;;;;;;13.31;58.64;99252.91;107911;1289;22457;-65
2023/02/26 00:37:51;;;;;;;10.30;5.40;;;;;;;13.36;58.58;99249.92;108003;1289;23996;-66
2023/02/26 00:40:28;;;;;;;11.50;5.20;;;;;;;13.40;58.51;99247.83;107936;1288;21990;-65
2023/02/26 00:42:55;;;;;;;10.60;5.10;;;;;;;13.42;58.33;99249.37;107932;1289;21997;-66
2023/02/26 00:45:21;;;;;;;7.50;4.90;;;;;;;13.41;58.36;99251.14;107935;1289;23055;-63
2023/02/26 00:48:11;;;;;;;11.40;6.40;;;;;;;13.42;58.35;99254.13;107802;1288;22006;-63
2023/02/26 00:50:42;;;;;;;13.70;6.40;;;;;;;13.43;58.32;99258.29;107888;1289;22459;-66
2023/02/26 00:53:21;;;;;;;11.60;6.20;;;;;;;13.46;58.29;99266.11;107823;1289;21960;-66
2023/02/26 00:55:48;;;;;;;11.10;5.30;;;;;;;13.48;58.30;99267.23;107816;1289;21999;-62
2023/02/26 00:58:13;;;;;;;13.60;6.20;;;;;;;13.49;58.37;99267.53;107845;1289;21997;-66
2023/02/26 01:00:40;;;;;;;9.50;5.20;;;;;;;13.51;58.53;99271.67;107844;1289;21992;-61
2023/02/26 01:03:06;;;;;;;9.50;6.30;;;;;;;13.55;58.55;99280.70;107821;1289;21986;-63
2023/02/26 01:05:33;;;;;;;11.20;6.20;;;;;;;13.55;58.41;99283.16;107804;1289;23602;-62
2023/02/26 01:08:23;;;;;;;13.50;7.20;;;;;;;13.54;58.43;99286.02;107837;1289;21996;-68
2023/02/26 01:10:49;;;;;;;12.90;6.20;;;;;;;13.53;58.45;99289.23;107787;1288;21993;-62
2023/02/26 01:13:15;;;;;;;14.40;6.50;;;;;;;13.52;58.49;99291.55;107844;1289;21991;-62
2023/02/26 01:15:52;;;;;;;11.80;5.70;;;;;;;13.51;58.65;99290.90;107803;1289;22003;-71
2023/02/26 01:18:32;;;;;;;10.90;6.40;;;;;;;13.52;58.73;99294.02;107954;1282;22082;-70
2023/02/26 01:21:05;;;;;;;15.10;6.20;;;;;;;13.55;58.72;99295.14;107962;1288;21999;-61
2023/02/26 01:23:32;;;;;;;11.60;5.70;;;;;;;13.58;58.82;99294.69;107625;1289;22003;-70
2023/02/26 01:26:01;;;;;;;14.60;6.80;;;;;;;13.61;58.96;99294.90;107929;1289;21992;-61
2023/02/26 01:28:28;;;;;;;10.70;6.70;;;;;;;13.63;58.88;99292.38;107850;1286;21998;-61
2023/02/26 01:30:58;;;;;;;11.70;6.80;;;;;;;13.63;58.76;99299.58;107779;1289;21997;-61
2023/02/26 01:33:40;;;;;;;10.30;5.90;;;;;;;13.60;58.74;99303.58;107871;1289;21993;-69
2023/02/26 01:36:21;;;;;;;11.20;5.90;;;;;;;13.57;58.96;99302.83;107883;1289;21996;-61
2023/02/26 01:39:04;;;;;;;11.40;6.50;;;;;;;13.58;58.99;99306.31;107975;1289;21995;-61
2023/02/26 01:41:49;;;;;;;11.40;5.90;;;;;;;13.59;59.01;99309.63;107853;1289;23071;-69
2023/02/26 01:44:46;;;;;;;9.50;5.00;;;;;;;13.61;59.01;99310.59;107821;1289;21995;-61
2023/02/26 01:47:16;;;;;;;9.50;5.70;;;;;;;13.61;59.07;99312.36;107821;1289;22004;-63
2023/02/26 01:49:42;;;;;;;8.40;5.60;;;;;;;13.60;59.04;99321.91;107979;1289;22021;-69
2023/02/26 01:52:45;;;;;;;12.00;5.50;;;;;;;13.59;59.05;99327.27;106460;1289;1002866;-67
2023/02/26 01:55:12;;;;;;;8.70;4.50;;;;;;;13.55;58.98;99331.97;107979;1289;21989;-69
2023/02/26 01:57:38;;;;;;;11.10;5.20;;;;;;;13.53;58.91;99335.21;107973;1289;21993;-70
2023/02/26 02:00:05;;;;;;;9.50;5.10;;;;;;;13.52;59.04;99340.55;108003;1289;23134;-60
2023/02/26 02:02:32;;;;;;;8.50;5.30;;;;;;;13.51;59.21;99349.77;108002;1289;21996;-61
2023/02/26 02:05:01;;;;;;;6.90;4.20;;;;;;;13.51;59.29;99356.61;107915;1289;21990;-61
2023/02/26 02:07:27;;;;;;;7.40;4.60;;;;;;;13.52;59.46;99368.41;107731;1289;22341;-70
2023/02/26 02:09:53;;;;;;;9.00;5.10;;;;;;;13.51;59.30;99372.86;107814;1289;21993;-70
2023/02/26 02:12:25;;;;;;;9.30;5.00;;;;;;;13.50;59.33;99385.77;107810;1289;23777;-66
2023/02/26 02:15:14;;;;;;;8.40;4.60;;;;;;;13.49;59.44;99394.79;107870;1289;22000;-60
2023/02/26 02:17:55;;;;;;;7.40;4.30;;;;;;;13.49;59.61;99398.82;107885;1289;21994;-70
2023/02/26 02:20:49;;;;;;;9.60;4.10;;;;;;;13.52;59.81;99409.83;107870;1289;22028;-71
2023/02/26 02:23:19;;;;;;;7.30;3.70;;;;;;;13.55;60.02;99422.92;107933;1289;22000;-70
2023/02/26 02:26:06;;;;;;;5.90;3.40;;;;;;;13.58;60.05;99438.34;107931;1289;21982;-69
2023/02/26 02:28:42;;;;;;;7.10;4.00;;;;;;;13.57;60.17;99446.98;107880;1289;22049;-60
2023/02/26 02:31:29;;;;;;;7.40;4.40;;;;;;;13.52;60.21;99450.86;107894;1289;21958;-60
2023/02/26 02:33:59;;;;;;;7.20;3.80;;;;;;;13.46;60.22;99457.82;107859;1289;22000;-60
2023/02/26 02:36:58;;;;;;;7.30;4.60;;;;;;;13.42;60.44;99462.20;107818;1289;22163;-60
2023/02/26 02:39:33;;;;;;;6.90;3.30;;;;;;;13.39;60.41;99458.95;107741;1289;21999;-60
2023/02/26 02:42:05;;;;;;;6.90;3.60;;;;;;;13.40;60.81;99454.85;107882;1289;21980;-69
2023/02/26 02:44:35;;;;;;;10.30;3.90;;;;;;;13.45;60.75;99457.49;108013;1289;21993;-69
2023/02/26 02:47:01;;;;;;;5.90;3.90;;;;;;;13.50;60.67;99459.08;108049;1289;21990;-60
2023/02/26 02:49:30;;;;;;;9.50;3.70;;;;;;;13.55;60.74;99465.77;107700;1289;21997;-69
2023/02/26 02:52:00;;;;;;;7.50;4.00;;;;;;;13.59;60.91;99473.71;107844;1289;21988;-60
2023/02/26 02:54:57;;;;;;;7.00;3.80;;;;;;;13.61;60.86;99477.50;107999;1289;22940;-60
2023/02/26 02:57:27;;;;;;;8.70;4.10;;;;;;;13.65;60.71;99484.27;107953;1289;22035;-60
2023/02/26 02:59:56;;;;;;;6.40;3.70;;;;;;;13.64;60.71;99495.88;107891;1289;22029;-60
2023/02/26 03:02:29;;;;;;;6.20;3.70;;;;;;;13.62;60.80;99496.67;107981;1284;22003;-70
2023/02/26 03:04:56;;;;;;;6.30;3.60;;;;;;;13.55;60.69;99492.88;107787;1289;21992;-60
2023/02/26 03:07:22;;;;;;;7.20;4.10;;;;;;;13.51;60.66;99496.91;107944;1289;21994;-70
2023/02/26 03:09:48;;;;;;;6.30;3.80;;;;;;;13.52;60.96;99504.63;108002;1289;21992;-70
2023/02/26 03:12:14;;;;;;;6.10;3.40;;;;;;;13.56;60.99;99496.03;107699;1289;21999;-61
2023/02/26 03:14:40;;;;;;;8.50;3.60;;;;;;;13.59;60.94;99490.80;107794;1289;21963;-61
2023/02/26 03:17:06;;;;;;;6.00;3.20;;;;;;;13.61;60.98;99489.31;107936;1289;21995;-60
2023/02/26 03:20:04;;;;;;;6.50;3.40;;;;;;;13.62;60.76;99488.76;107843;1289;21994;-61
2023/02/26 03:22:52;;;;;;;5.70;3.60;;;;;;;13.62;60.77;99494.76;107936;1289;21989;-69
2023/02/26 03:25:28;;;;;;;6.10;3.60;;;;;;;13.62;60.72;99480.64;107879;1289;21993;-69
2023/02/26 03:28:00;;;;;;;8.40;4.40;;;;;;;13.61;60.63;99475.91;108012;1289;22000;-60
2023/02/26 03:30:49;;;;;;;7.60;3.70;;;;;;;13.60;60.50;99485.14;107905;1289;21992;-69
2023/02/26 03:33:19;;;;;;;7.50;3.30;;;;;;;13.58;60.43;99487.70;107741;1289;22008;-69
2023/02/26 03:36:00;;;;;;;7.30;3.80;;;;;;;13.55;60.61;99482.66;107841;1286;22466;-69
2023/02/26 03:38:32;;;;;;;7.30;4.20;;;;;;;13.54;60.55;99481.99;107879;1289;21993;-69
2023/02/26 03:41:07;;;;;;;9.00;4.00;;;;;;;13.53;60.51;99478.52;107891;1289;22033;-60
2023/02/26 03:43:42;;;;;;;10.70;4.10;;;;;;;13.51;60.54;99470.47;107933;1289;22005;-68
2023/02/26 03:46:11;;;;;;;8.90;4.70;;;;;;;13.45;60.84;99470.36;107778;1289;22007;-61
2023/02/26 03:48:37;;;;;;;8.70;4.40;;;;;;;13.43;61.12;99481.73;107864;1289;22008;-68
2023/02/26 03:51:12;;;;;;;7.10;3.70;;;;;;;13.44;61.20;99471.80;107853;1289;21985;-60
2023/02/26 03:53:52;;;;;;;6.90;3.80;;;;;;;13.45;60.76;99468.27;107798;1289;21994;-60
2023/02/26 03:56:39;;;;;;;6.90;3.50;;;;;;;13.43;60.65;99468.31;107757;1289;23619;-69
2023/02/26 03:59:05;;;;;;;9.10;3.90;;;;;;;13.39;60.24;99473.21;107820;1289;22012;-60
2023/02/26 04:01:38;;;;;;;8.10;3.40;;;;;;;13.35;60.53;99471.59;107814;1289;21980;-69
2023/02/26 04:04:21;;;;;;;10.80;3.90;;;;;;;13.33;60.49;99475.91;107776;1289;22030;-60
2023/02/26 04:06:48;;;;;;;7.50;3.10;;;;;;;13.30;60.37;99480.95;107898;1289;21982;-69
2023/02/26 04:09:15;;;;;;;8.00;3.00;;;;;;;13.26;60.23;99489.55;107665;1289;22000;-60
2023/02/26 04:11:40;;;;;;;5.60;3.10;;;;;;;13.22;60.15;99492.53;107797;1289;21993;-68
2023/02/26 04:14:07;;;;;;;8.80;3.10;;;;;;;13.19;60.24;99493.17;107766;1289;21985;-68
2023/02/26 04:16:33;;;;;;;6.80;2.70;;;;;;;13.18;60.20;99499.38;107838;1289;21996;-61
2023/02/26 04:19:01;;;;;;;7.20;3.30;;;;;;;13.17;60.06;99509.09;107863;1289;23737;-60
2023/02/26 04:21:27;;;;;;;7.00;3.30;;;;;;;13.11;60.00;99508.42;107885;1286;21998;-61
2023/02/26 04:23:53;;;;;;;5.90;3.10;;;;;;;13.07;59.92;99515.59;107839;1289;21983;-61
2023/02/26 04:26:19;;;;;;;5.80;2.80;;;;;;;13.02;59.77;99520.17;107145;1289;1003001;-60
2023/02/26 04:28:45;;;;;;;6.60;3.50;;;;;;;12.98;59.76;99526.33;107810;1289;22090;-68
2023/02/26 04:31:11;;;;;;;6.00;3.30;;;;;;;12.95;59.76;99536.30;107477;1289;530315;-69
2023/02/26 04:33:38;;;;;;;6.50;3.50;;;;;;;12.92;59.93;99537.63;107807;1289;21997;-68
2023/02/26 04:36:04;;;;;;;10.00;4.30;;;;;;;12.91;60.13;99534.13;107824;1289;21980;-68
2023/02/26 04:38:30;;;;;;;7.10;3.70;;;;;;;12.92;60.31;99534.63;107890;1289;22035;-61
2023/02/26 04:40:56;;;;;;;7.10;3.80;;;;;;;12.93;60.35;99535.11;107869;1289;22001;-68
2023/02/26 04:43:22;;;;;;;10.60;5.00;;;;;;;12.93;60.31;99533.38;107835;1289;21994;-60
2023/02/26 04:45:48;;;;;;;8.90;4.30;;;;;;;12.90;60.17;99534.70;107812;1289;21993;-68
2023/02/26 04:48:17;;;;;;;7.20;4.40;;;;;;;12.89;60.26;99535.26;105600;1289;1003336;-68
2023/02/26 04:50:43;;;;;;;8.80;3.70;;;;;;;12.91;60.40;99539.60;107892;1289;21999;-60
2023/02/26 04:53:11;;;;;;;11.00;4.10;;;;;;;12.91;60.23;99533.42;107840;1289;21994;-60
2023/02/26 04:55:37;;;;;;;15.80;4.00;;;;;;;12.92;60.39;99534.44;107890;1289;22002;-60
2023/02/26 04:58:06;;;;;;;19.80;4.30;;;;;;;12.93;60.61;99543.06;107856;1289;22037;-60
2023/02/26 05:00:33;;;;;;;14.30;4.10;;;;;;;12.96;60.56;99542.08;107868;1289;22000;-68
2023/02/26 05:02:59;;;;;;;12.20;4.20;;;;;;;12.99;60.58;99540.58;107996;1289;21997;-69
2023/02/26 05:05:25;;;;;;;8.60;4.00;;;;;;;13.00;60.62;99543.33;107887;1289;23079;-60
2023/02/26 05:07:54;;;;;;;8.00;3.70;;;;;;;13.02;60.66;99550.67;107874;1290;22031;-61
2023/02/26 05:10:20;;;;;;;10.30;4.40;;;;;;;13.03;60.64;99551.31;107829;1289;22000;-60
2023/02/26 05:12:45;;;;;;;18.10;3.50;;;;;;;13.03;60.46;99553.64;107818;1289;22083;-60
2023/02/26 05:15:11;;;;;;;11.90;3.70;;;;;;;13.03;60.26;99559.79;106485;1289;1002979;-69
2023/02/26 05:17:38;;;;;;;15.60;4.00;;;;;;;13.03;60.25;99562.63;107990;1289;23629;-69
2023/02/26 05:20:08;;;;;;;14.20;3.70;;;;;;;13.00;60.27;99568.54;108021;1289;22014;-60
2023/02/26 05:22:39;;;;;;;13.00;4.00;;;;;;;13.00;60.59;99562.02;107827;1289;21995;-70
2023/02/26 05:25:06;;;;;;;24.30;4.10;;;;;;;13.04;60.73;99563.98;107973;1289;22462;-60
2023/02/26 05:27:32;;;;;;;13.40;4.60;;;;;;;13.06;60.70;99574.09;108017;1289;21998;-70
2023/02/26 05:29:59;;;;;;;10.30;4.20;;;;;;;13.09;60.60;99574.34;107858;1289;21994;-60
2023/02/26 05:32:25;;;;;;;11.50;3.30;;;;;;;13.10;60.48;99573.45;107977;1289;22012;-69
2023/02/26 05:34:51;;;;;;;12.90;4.00;;;;;;;13.12;60.75;99566.70;107943;1289;22033;-60
2023/02/26 05:37:16;;;;;;;12.60;4.00;;;;;;;13.13;60.61;99568.58;107957;1289;22032;-60
2023/02/26 05:39:42;;;;;;;11.80;4.20;;;;;;;13.16;60.85;99575.36;107992;1289;21965;-62
2023/02/26 05:42:08;;;;;;;9.00;3.20;;;;;;;13.20;61.09;99583.33;107831;1289;22008;-60
2023/02/26 05:44:34;;;;;;;11.30;3.90;;;;;;;13.23;60.91;99586.73;107801;1289;22006;-69
2023/02/26 05:47:01;;;;;;;10.60;4.50;;;;;;;13.26;60.83;99590.30;107901;1289;21995;-69
2023/02/26 05:49:29;;;;;;;11.10;3.60;;;;;;;13.28;60.83;99589.70;108001;1289;23056;-61
2023/02/26 05:51:56;;;;;;;10.50;3.80;;;;;;;13.30;60.85;99594.60;106360;1281;1002426;-61
2023/02/26 05:54:21;;;;;;;8.90;3.90;;;;;;;13.32;60.84;99585.16;107814;1289;23674;-61
2023/02/26 05:56:47;;;;;;;6.60;3.00;;;;;;;13.36;60.86;99585.91;107841;1289;22108;-60
2023/02/26 05:59:13;;;;;;;9.50;3.40;;;;;;;13.39;61.06;99591.25;107951;1289;21998;-62
2023/02/26 06:01:41;;;;;;;15.90;5.00;;;;;;;13.43;61.04;99597.88;107903;1289;22002;-61
2023/02/26 06:04:07;;;;;;;9.60;3.40;;;;;;;13.46;61.07;99601.81;107889;1284;21995;-69
2023/02/26 06:06:33;;;;;;;9.10;3.70;;;;;;;13.48;61.16;99600.64;107946;1289;22008;-69
2023/02/26 06:09:01;;;;;;;8.80;3.20;;;;;;;13.49;61.13;99602.73;108014;1288;22251;-60
2023/02/26 06:11:28;;;;;;;9.60;3.50;;;;;;;13.50;61.17;99606.41;107276;1289;1003038;-69
2023/02/26 06:13:54;;;;;;;11.00;3.40;;;;;;;13.50;61.05;99608.15;107872;1289;21991;-69
2023/02/26 06:16:22;;;;;;;10.90;3.40;;;;;;;13.51;61.14;99617.98;107865;1289;21994;-60
2023/02/26 06:18:51;;;;;;;7.60;2.80;;;;;;;13.55;61.16;99619.97;107905;1282;22003;-60
2023/02/26 06:21:17;;;;;;;7.60;3.20;;;;;;;13.59;61.32;99622.29;107884;1285;21992;-69
2023/02/26 06:23:43;;;;;;;13.10;4.10;;;;;;;13.62;61.23;99628.00;107929;1289;23175;-61
2023/02/26 06:26:09;;;;;;;8.10;3.70;;;;;;;13.64;61.38;99634.45;107912;1289;21986;-60
2023/02/26 06:28:36;;;;;;;8.50;4.00;;;;;;;13.67;61.33;99639.80;107898;1289;22449;-60
2023/02/26 06:31:02;;;;;;;6.40;3.60;;;;;;;13.68;61.20;99645.23;107845;1289;22035;-68
2023/02/26 06:33:28;;;;;;;6.10;3.00;;;;;;;13.70;61.33;99644.09;107773;1289;23086;-61
2023/02/26 06:35:54;;;;;;;5.40;3.00;;;;;;;13.73;61.45;99642.77;107933;1289;21989;-68
2023/02/26 06:38:20;;;;;;;9.80;3.20;;;;;;;13.75;61.41;99646.92;107854;1289;21992;-68
2023/02/26 06:40:46;;;;;;;7.20;3.00;;;;;;;13.77;61.52;99648.41;107872;1287;21996;-60
2023/02/26 06:43:12;;;;;;;6.00;3.00;;;;;;;13.81;61.45;99648.64;107846;1283;21994;-68
2023/02/26 06:45:38;;;;;;;6.50;3.50;;;;;;;13.86;61.55;99652.00;107841;1289;21997;-68
2023/02/26 06:48:04;;;;;;;6.10;3.60;;;;;;;13.91;61.31;99654.96;107840;1289;23564;-68
2023/02/26 06:50:30;;;;;;;5.60;3.00;;;;;;;13.92;61.28;99653.00;108002;1289;22029;-60
2023/02/26 06:52:56;;;;;;;5.90;3.10;;;;;;;13.90;61.35;99655.16;107807;1289;22006;-61
2023/02/26 06:55:25;;;;;;;6.40;3.30;;;;;;;13.91;61.41;99652.15;107765;1289;22462;-59
2023/02/26 06:57:53;;;;;;;4.60;2.50;;;;;;;13.93;61.66;99659.98;107978;1289;21998;-60
2023/02/26 07:00:19;;;;;;;6.30;3.20;;;;;;;13.96;61.55;99667.83;108142;1288;22454;-59
2023/02/26 07:02:45;;;;;;;4.80;2.90;;;;;;;13.99;61.45;99672.46;107984;1289;21997;-60
2023/02/26 07:05:18;;;;;;;5.10;3.40;;;;;;;14.02;61.35;99672.21;107957;1289;21999;-59
2023/02/26 07:07:44;;;;;;;5.80;3.20;;;;;;;14.04;61.39;99677.40;108013;1289;21997;-61
2023/02/26 07:10:10;;;;;;;8.00;3.50;;;;;;;14.07;61.53;99679.41;107942;1289;21988;-59
2023/02/26 07:12:37;;;;;;;5.70;3.10;;;;;;;14.10;61.51;99690.58;107993;1289;21992;-60
2023/02/26 07:15:04;;;;;;;5.00;3.10;;;;;;;14.13;61.47;99689.77;107869;1289;22006;-60
2023/02/26 07:17:34;;;;;;;4.70;2.70;;;;;;;14.18;61.73;99698.94;107821;1289;22031;-59
2023/02/26 07:20:05;;;;;;;3.60;2.30;;;;;;;14.21;61.61;99704.80;107853;1289;22002;-60
2023/02/26 07:22:31;;;;;;;6.90;2.80;;;;;;;14.27;61.72;99696.83;107801;1289;21995;-60
2023/02/26 07:24:59;;;;;;;4.30;2.50;;;;;;;14.30;61.63;99690.02;107842;1289;22002;-60
2023/02/26 07:27:25;;;;;;;4.70;2.70;;;;;;;14.32;61.40;99689.55;107827;1289;22000;-60
2023/02/26 07:29:51;;;;;;;4.10;2.70;;;;;;;14.34;61.44;99692.85;107793;1290;22003;-61
2023/02/26 07:32:16;;;;;;;4.10;2.50;;;;;;;14.36;61.38;99687.14;107834;1289;22037;-60
2023/02/26 07:34:42;;;;;;;3.90;2.30;;;;;;;14.38;61.38;99691.45;107873;1289;22089;-60
2023/02/26 07:37:08;;;;;;;7.00;3.30;;;;;;;14.41;61.39;99695.76;107847;1289;21994;-67
2023/02/26 07:39:34;;;;;;;4.10;2.30;;;;;;;14.44;61.55;99687.69;107869;1290;22004;-66
2023/02/26 07:42:01;;;;;;;3.90;2.20;;;;;;;14.48;61.60;99674.83;107886;1289;22036;-66
2023/02/26 07:44:27;;;;;;;5.30;2.20;;;;;;;14.52;61.46;99670.80;107808;1290;21996;-61
2023/02/26 07:46:53;;;;;;;4.10;2.30;;;;;;;14.54;61.42;99672.65;107883;1289;21991;-67
2023/02/26 07:49:20;;;;;;;3.80;2.30;;;;;;;14.56;61.38;99670.83;107233;1289;1002916;-67
2023/02/26 07:51:47;;;;;;;3.90;2.10;;;;;;;14.56;61.34;99675.38;107910;1289;21993;-66
2023/02/26 07:54:13;;;;;;;3.30;1.80;;;;;;;14.57;61.36;99673.77;107924;1289;21995;-60
2023/02/26 07:56:40;;;;;;;4.30;1.90;;;;;;;14.58;61.20;99673.20;107912;1289;22000;-66
2023/02/26 07:59:06;;;;;;;4.60;2.30;;;;;;;14.59;61.18;99675.10;107919;1289;21992;-66
2023/02/26 08:01:31;;;;;;;6.70;2.20;;;;;;;14.61;61.36;99666.55;108046;1289;21986;-66
2023/02/26 08:03:57;;;;;;;4.30;2.10;;;;;;;14.62;61.35;99660.86;107971;1288;21996;-62
2023/02/26 08:06:23;;;;;;;4.80;2.50;;;;;;;14.64;61.44;99653.89;107954;1289;22029;-65
2023/02/26 08:08:51;;;;;;;5.80;2.40;;;;;;;14.66;61.46;99648.86;107984;1289;22003;-66
2023/02/26 08:11:16;;;;;;;3.80;2.10;;;;;;;14.65;61.27;99645.71;108003;1288;21994;-68
2023/02/26 08:13:42;;;;;;;4.40;2.60;;;;;;;14.66;61.19;99638.63;107852;1289;22028;-62
2023/02/26 08:16:11;;;;;;;6.00;2.40;;;;;;;14.67;61.19;99636.46;107749;1289;22001;-66
2023/02/26 08:18:37;;;;;;;9.30;2.70;;;;;;;14.68;61.26;99637.86;107764;1290;22004;-59
2023/02/26 08:21:06;;;;;;;5.40;2.40;;;;;;;14.71;61.14;99645.54;109917;1289;21919;-61
2023/02/26 08:23:32;;;;;;;5.80;2.70;;;;;;;14.73;61.10;99654.98;109373;1289;22058;-60
2023/02/26 08:26:09;;;;;;;4.90;1.80;;;;;;;14.75;61.19;99660.04;107827;1289;24417;-60
2023/02/26 08:28:34;;;;;;;4.70;2.10;;;;;;;14.76;61.09;99669.37;108000;1289;21993;-60
2023/02/26 08:31:03;;;;;;;8.00;3.30;;;;;;;14.79;61.25;99671.89;107948;1289;22002;-59
2023/02/26 08:33:30;;;;;;;7.40;2.20;;;;;;;14.82;61.43;99669.60;107874;1290;22008;-60
2023/02/26 08:36:00;;;;;;;8.50;2.30;;;;;;;14.85;61.43;99668.63;107869;1290;22466;-60
2023/02/26 08:38:27;;;;;;;4.60;1.90;;;;;;;14.89;61.37;99670.23;107871;1289;21993;-65
2023/02/26 08:40:52;;;;;;;4.40;2.20;;;;;;;14.90;61.29;99663.81;107830;1289;21994;-65
2023/02/26 08:43:19;;;;;;;5.10;2.20;;;;;;;14.91;61.29;99659.73;108065;1289;21991;-67
2023/02/26 08:45:45;;;;;;;6.50;2.50;;;;;;;14.92;61.44;99657.54;107947;1289;21990;-62
2023/02/26 08:48:10;;;;;;;6.10;2.70;;;;;;;14.93;61.48;99649.20;107961;1289;22018;-64
2023/02/26 08:50:37;;;;;;;4.90;2.70;;;;;;;14.95;61.57;99642.95;107949;1288;22042;-67
2023/02/26 08:53:03;;;;;;;4.90;2.20;;;;;;;14.96;61.65;99638.31;107883;1287;21989;-63
2023/02/26 08:55:29;;;;;;;4.50;2.20;;;;;;;14.99;61.68;99654.61;107902;1289;21999;-63
2023/02/26 08:57:55;;;;;;;5.30;1.90;;;;;;;15.03;61.84;99671.06;107876;1289;22002;-68
2023/02/26 09:00:21;;;;;;;4.60;2.20;;;;;;;15.07;62.02;99679.01;107951;1289;21992;-63
2023/02/26 09:02:47;;;;;;;4.70;2.70;;;;;;;15.12;62.10;99684.30;107841;1289;24334;-67
2023/02/26 09:05:16;;;;;;;5.00;2.90;;;;;;;15.17;62.18;99677.36;107962;1289;22011;-67
2023/02/26 09:07:42;;;;;;;4.80;2.70;;;;;;;15.22;62.22;99679.27;107984;1289;24329;-63
2023/02/26 09:10:09;;;;;;;4.40;2.70;;;;;;;15.27;62.20;99676.56;108007;1289;21998;-67
2023/02/26 09:12:36;;;;;;;5.00;2.70;;;;;;;15.30;62.18;99667.23;108016;1289;21995;-63
2023/02/26 09:15:04;;;;;;;3.40;2.00;;;;;;;15.33;62.10;99659.36;108020;1289;22009;-66
2023/02/26 09:17:30;;;;;;;6.00;2.80;;;;;;;15.37;62.21;99653.92;108011;1289;21995;-67
2023/02/26 09:19:56;;;;;;;5.30;3.10;;;;;;;15.41;62.16;99648.60;107972;1289;22007;-64
2023/02/26 09:22:22;;;;;;;4.50;2.70;;;;;;;15.45;62.37;99661.48;107753;1289;22032;-65
2023/02/26 09:24:48;;;;;;;4.60;2.40;;;;;;;15.51;62.32;99664.06;107765;1289;22028;-62
2023/02/26 09:27:14;;;;;;;4.40;3.10;;;;;;;15.55;62.51;99658.73;108016;1289;21992;-66
2023/02/26 09:29:39;;;;;;;3.70;2.30;;;;;;;15.59;62.41;99658.19;108003;1289;22000;-67
2023/02/26 09:32:07;;;;;;;4.30;2.40;;;;;;;15.63;62.30;99652.55;107970;1289;21997;-63
2023/02/26 09:34:36;;;;;;;3.50;1.90;;;;;;;15.67;62.46;99644.42;107887;1289;22001;-63
2023/02/26 09:37:03;;;;;;;5.70;2.60;;;;;;;15.75;62.63;99648.15;107860;1289;21993;-67
2023/02/26 09:39:29;;;;;;;3.90;2.20;;;;;;;15.83;62.79;99654.69;107898;1289;22005;-67
2023/02/26 09:41:56;;;;;;;4.70;2.80;;;;;;;15.91;62.64;99654.88;107860;1289;22003;-67
2023/02/26 09:44:24;;;;;;;7.10;3.40;;;;;;;15.97;62.61;99648.42;107672;1289;21993;-67
2023/02/26 09:46:52;;;;;;;5.50;3.20;;;;;;;16.02;62.38;99647.66;107891;1290;22023;-67
2023/02/26 09:49:20;;;;;;;5.80;2.50;;;;;;;16.05;62.29;99657.23;107883;1289;21993;-67
2023/02/26 09:51:54;;;;;;;4.10;2.50;;;;;;;16.10;62.27;99659.85;107881;1289;22058;-63
2023/02/26 09:54:28;;;;;;;4.80;2.80;;;;;;;16.12;62.04;99655.84;108005;1289;22005;-67
2023/02/26 09:56:55;;;;;;;5.30;2.70;;;;;;;16.13;62.02;99663.08;107906;1289;21991;-68
2023/02/26 09:59:21;;;;;;;5.10;3.00;;;;;;;16.16;62.04;99661.52;107836;1289;22005;-67
2023/02/26 10:01:59;;;;;;;5.30;3.10;;;;;;;16.18;62.00;99666.16;107900;1289;21994;-67
2023/02/26 10:04:52;;;;;;;4.50;3.00;;;;;;;16.22;62.02;99676.10;107858;1289;23618;-67
2023/02/26 10:07:41;;;;;;;5.00;3.30;;;;;;;16.28;62.13;99687.00;107828;1289;22032;-65
2023/02/26 10:10:22;;;;;;;5.30;3.20;;;;;;;16.36;62.14;99690.83;107948;1289;22297;-64
2023/02/26 10:12:50;;;;;;;3.60;2.30;;;;;;;16.42;62.07;99695.36;107885;1289;21996;-65
2023/02/26 10:15:20;;;;;;;5.60;2.90;;;;;;;16.49;62.06;99696.09;107916;1289;22001;-62
2023/02/26 10:18:02;;;;;;;;;;;;;;;16.57;61.82;99688.77;107945;1287;22167;-62
2023/02/26 10:20:35;;;;;;;5.40;3.00;;;;;;;16.64;61.49;99681.89;107775;1289;21995;-65
2023/02/26 10:23:25;;;;;;;5.80;3.00;;;;;;;16.68;61.50;99673.58;107876;1289;23037;-65
2023/02/26 10:26:01;;;;;;;6.00;3.10;;;;;;;16.72;61.33;99673.39;107824;1289;22008;-63
2023/02/26 10:28:54;;;;;;;4.40;2.40;;;;;;;16.77;61.37;99678.08;107871;1289;22141;-63
2023/02/26 10:31:37;;;;;;;4.10;2.40;;;;;;;16.84;61.24;99680.91;107883;1289;22058;-62
2023/02/26 10:34:35;;;;;;;4.40;2.60;;;;;;;16.91;61.29;99680.41;107872;1289;21991;-62
2023/02/26 10:37:19;;;;;;;4.10;2.70;;;;;;;16.99;61.05;99680.23;107881;1287;23647;-65
2023/02/26 10:40:08;;;;;;;5.30;3.50;;;;;;;17.07;61.07;99673.77;107154;1289;1003166;-65
2023/02/26 10:43:06;;;;;;;5.20;3.50;;;;;;;17.18;61.23;99676.29;107882;1289;21996;-63
2023/02/26 10:45:32;;;;;;;4.30;3.00;;;;;;;17.29;60.91;99680.49;107863;1289;21979;-66
2023/02/26 10:48:23;;;;;;;4.60;2.50;;;;;;;17.38;60.75;99674.19;107856;1289;21995;-65
2023/02/26 10:50:54;;;;;;;5.10;3.10;;;;;;;17.47;60.62;99672.09;107826;1286;22002;-63
2023/02/26 10:53:20;;;;;;;5.60;3.70;;;;;;;17.53;60.07;99670.42;107813;1289;22001;-66
2023/02/26 10:55:47;;;;;;;7.10;4.00;;;;;;;17.55;59.96;99674.19;107988;1289;22256;-66
2023/02/26 10:58:15;;;;;;;7.20;4.00;;;;;;;17.58;59.89;99673.87;107858;1289;21995;-63
2023/02/26 11:00:45;;;;;;;8.80;4.20;;;;;;;17.60;59.76;99667.02;107899;1283;21996;-66
2023/02/26 11:03:18;;;;;;;6.30;3.80;;;;;;;17.60;59.49;99661.71;107970;1289;23667;-63
2023/02/26 11:05:44;;;;;;;6.60;3.40;;;;;;;17.61;59.21;99660.23;107917;1289;21997;-65
2023/02/26 11:08:44;;;;;;;8.40;3.50;;;;;;;17.61;59.21;99660.74;107918;1289;23871;-64
2023/02/26 11:11:40;;;;;;;7.40;3.80;;;;;;;17.66;59.89;99664.94;107858;1289;22360;-64
2023/02/26 11:14:07;;;;;;;9.70;4.90;;;;;;;17.80;60.19;99661.50;107812;1289;22021;-63
2023/02/26 11:16:33;;;;;;;8.30;4.90;;;;;;;17.93;60.09;99657.80;107842;1289;21969;-64
2023/02/26 11:19:00;;;;;;;9.90;5.70;;;;;;;18.06;60.03;99661.52;107914;1289;21994;-64
2023/02/26 11:21:29;;;;;;;8.40;5.50;;;;;;;18.25;60.30;99664.25;107866;1289;22033;-63
2023/02/26 11:24:24;;;;;;;8.30;4.80;;;;;;;18.47;60.77;99661.05;107143;1287;1002454;-66
2023/02/26 11:26:50;;;;;;;11.70;5.60;;;;;;;18.76;61.17;99656.79;107833;1289;22014;-63
2023/02/26 11:29:21;;;;;;;9.80;6.60;;;;;;;19.01;61.07;99653.23;107908;1289;22036;-64
2023/02/26 11:31:50;;;;;;;10.70;6.80;;;;;;;19.18;60.25;99653.27;107946;1289;21988;-65
2023/02/26 11:34:15;;;;;;;12.10;6.90;;;;;;;19.29;59.88;99657.98;107886;1289;22015;-67
2023/02/26 11:36:43;;;;;;;13.20;7.20;;;;;;;19.37;59.31;99659.47;107948;1289;21995;-65